sensor_id;sensor_type;location;lat;lon;timestamp;pressure;altitude;pressure_sealevel;temperature;humidity
9415;BME280;4746;35.664;139.738;2023-02-21T00:02:15;100965.25;;;8.67;26.68
9415;BME280;4746;35.664;139.738;2023-02-21T00:05:01;100958.44;;;8.68;27.00
9415;BME280;4746;35.664;139.738;2023-02-21T00:07:47;100962.00;;;8.74;27.24
9415;BME280;4746;35.664;139.738;2023-02-21T00:10:33;100931.31;;;8.73;26.04
9415;BME280;4746;35.664;139.738;2023-02-21T00:13:18;100961.81;;;8.67;26.59
9415;BME280;4746;35.664;139.738;2023-02-21T00:16:04;100977.94;;;8.66;26.20
9415;BME280;4746;35.664;139.738;2023-02-21T00:18:50;100955.06;;;8.69;26.52
9415;BME280;4746;35.664;139.738;2023-02-21T00:21:35;100971.34;;;8.74;26.37
9415;BME280;4746;35.664;139.738;2023-02-21T00:24:21;100975.16;;;8.88;26.11
9415;BME280;4746;35.664;139.738;2023-02-21T00:27:06;100966.06;;;8.98;25.89
9415;BME280;4746;35.664;139.738;2023-02-21T00:29:52;100971.25;;;9.03;26.32
9415;BME280;4746;35.664;139.738;2023-02-21T00:32:37;100955.88;;;9.00;25.45
9415;BME280;4746;35.664;139.738;2023-02-21T00:35:23;100960.03;;;8.97;25.44
9415;BME280;4746;35.664;139.738;2023-02-21T00:38:10;100942.00;;;8.91;24.63
9415;BME280;4746;35.664;139.738;2023-02-21T00:40:55;100987.84;;;8.86;25.25
9415;BME280;4746;35.664;139.738;2023-02-21T00:43:41;100952.09;;;8.86;24.87
9415;BME280;4746;35.664;139.738;2023-02-21T00:46:26;100968.94;;;8.78;25.07
9415;BME280;4746;35.664;139.738;2023-02-21T00:49:12;100947.72;;;8.81;25.26
9415;BME280;4746;35.664;139.738;2023-02-21T00:52:01;100950.50;;;8.91;25.24
9415;BME280;4746;35.664;139.738;2023-02-21T00:54:46;100953.91;;;8.90;24.93
9415;BME280;4746;35.664;139.738;2023-02-21T00:57:32;100953.84;;;8.89;25.03
9415;BME280;4746;35.664;139.738;2023-02-21T01:00:21;100952.31;;;8.94;25.45
9415;BME280;4746;35.664;139.738;2023-02-21T01:03:08;100956.63;;;8.96;24.64
9415;BME280;4746;35.664;139.738;2023-02-21T01:05:54;100951.38;;;8.92;23.80
9415;BME280;4746;35.664;139.738;2023-02-21T01:08:45;100948.75;;;8.89;24.06
9415;BME280;4746;35.664;139.738;2023-02-21T01:11:32;100936.88;;;8.91;24.28
9415;BME280;4746;35.664;139.738;2023-02-21T01:14:18;100934.28;;;8.88;23.74
9415;BME280;4746;35.664;139.738;2023-02-21T01:17:03;100943.56;;;8.86;23.08
9415;BME280;4746;35.664;139.738;2023-02-21T01:19:49;100932.75;;;8.96;23.69
9415;BME280;4746;35.664;139.738;2023-02-21T01:22:35;100946.63;;;9.05;23.77
9415;BME280;4746;35.664;139.738;2023-02-21T01:25:21;100931.41;;;9.09;23.95
9415;BME280;4746;35.664;139.738;2023-02-21T01:28:07;100935.88;;;9.18;23.77
9415;BME280;4746;35.664;139.738;2023-02-21T01:30:53;100955.69;;;9.28;23.84
9415;BME280;4746;35.664;139.738;2023-02-21T01:33:42;100955.72;;;9.29;23.31
9415;BME280;4746;35.664;139.738;2023-02-21T01:36:27;100926.63;;;9.24;23.51
9415;BME280;4746;35.664;139.738;2023-02-21T01:39:14;100933.50;;;9.27;23.71
9415;BME280;4746;35.664;139.738;2023-02-21T01:42:01;100921.72;;;9.32;23.95
9415;BME280;4746;35.664;139.738;2023-02-21T01:45:05;100939.81;;;9.41;24.73
9415;BME280;4746;35.664;139.738;2023-02-21T01:47:54;100930.06;;;9.62;23.96
9415;BME280;4746;35.664;139.738;2023-02-21T01:50:39;100917.59;;;9.75;23.00
9415;BME280;4746;35.664;139.738;2023-02-21T01:53:26;100915.16;;;9.81;22.61
9415;BME280;4746;35.664;139.738;2023-02-21T01:56:13;100919.34;;;9.77;22.66
9415;BME280;4746;35.664;139.738;2023-02-21T01:59:01;100924.53;;;9.82;22.46
9415;BME280;4746;35.664;139.738;2023-02-21T02:02:14;100914.38;;;9.85;22.54
9415;BME280;4746;35.664;139.738;2023-02-21T02:05:04;100895.63;;;9.86;22.24
9415;BME280;4746;35.664;139.738;2023-02-21T02:07:53;100898.66;;;10.07;22.40
9415;BME280;4746;35.664;139.738;2023-02-21T02:10:40;100897.22;;;10.21;22.31
9415;BME280;4746;35.664;139.738;2023-02-21T02:16:33;100898.88;;;10.19;21.32
9415;BME280;4746;35.664;139.738;2023-02-21T02:34:40;100889.75;;;10.78;20.93
9415;BME280;4746;35.664;139.738;2023-02-21T02:40:20;100878.91;;;10.96;20.48
9415;BME280;4746;35.664;139.738;2023-02-21T02:48:50;100845.28;;;11.31;20.17
9415;BME280;4746;35.664;139.738;2023-02-21T02:51:20;100877.88;;;11.38;20.07
9415;BME280;4746;35.664;139.738;2023-02-21T02:53:48;100863.50;;;11.49;19.88
9415;BME280;4746;35.664;139.738;2023-02-21T02:56:16;100857.81;;;11.68;19.42
9415;BME280;4746;35.664;139.738;2023-02-21T02:58:57;100869.00;;;11.76;19.83
9415;BME280;4746;35.664;139.738;2023-02-21T03:05:07;100840.00;;;11.84;20.32
9415;BME280;4746;35.664;139.738;2023-02-21T03:11:19;100872.84;;;12.10;20.13
9415;BME280;4746;35.664;139.738;2023-02-21T03:16:38;100881.28;;;11.97;20.01
9415;BME280;4746;35.664;139.738;2023-02-21T03:19:14;100865.91;;;12.00;20.00
9415;BME280;4746;35.664;139.738;2023-02-21T03:21:59;100877.06;;;12.04;20.02
9415;BME280;4746;35.664;139.738;2023-02-21T03:24:29;100883.88;;;12.02;19.89
9415;BME280;4746;35.664;139.738;2023-02-21T03:27:04;100873.69;;;12.08;19.46
9415;BME280;4746;35.664;139.738;2023-02-21T03:29:36;100808.69;;;12.13;19.39
9415;BME280;4746;35.664;139.738;2023-02-21T03:32:27;100861.03;;;12.26;19.02
9415;BME280;4746;35.664;139.738;2023-02-21T03:34:56;100855.97;;;12.30;18.70
9415;BME280;4746;35.664;139.738;2023-02-21T03:37:47;100837.19;;;12.39;18.70
9415;BME280;4746;35.664;139.738;2023-02-21T03:40:21;100861.28;;;12.51;18.75
9415;BME280;4746;35.664;139.738;2023-02-21T03:42:54;100867.44;;;12.65;18.60
9415;BME280;4746;35.664;139.738;2023-02-21T03:45:23;100836.63;;;12.68;18.55
9415;BME280;4746;35.664;139.738;2023-02-21T03:47:51;100855.47;;;12.68;18.66
9415;BME280;4746;35.664;139.738;2023-02-21T03:50:20;100830.56;;;12.63;18.61
9415;BME280;4746;35.664;139.738;2023-02-21T03:52:48;100843.50;;;12.72;18.94
9415;BME280;4746;35.664;139.738;2023-02-21T03:55:16;100828.13;;;12.78;18.94
9415;BME280;4746;35.664;139.738;2023-02-21T03:57:43;100821.31;;;12.83;18.99
9415;BME280;4746;35.664;139.738;2023-02-21T04:00:13;100813.69;;;12.90;18.94
9415;BME280;4746;35.664;139.738;2023-02-21T04:02:43;100842.00;;;12.98;18.62
9415;BME280;4746;35.664;139.738;2023-02-21T04:05:11;100826.63;;;13.04;18.42
9415;BME280;4746;35.664;139.738;2023-02-21T04:07:39;100800.94;;;13.10;18.37
9415;BME280;4746;35.664;139.738;2023-02-21T04:10:06;100805.31;;;13.19;18.93
9415;BME280;4746;35.664;139.738;2023-02-21T04:12:34;100804.47;;;13.22;18.70
9415;BME280;4746;35.664;139.738;2023-02-21T04:15:02;100812.19;;;13.23;18.90
9415;BME280;4746;35.664;139.738;2023-02-21T04:17:31;100807.25;;;13.67;18.60
9415;BME280;4746;35.664;139.738;2023-02-21T04:19:58;100816.88;;;14.11;18.41
9415;BME280;4746;35.664;139.738;2023-02-21T04:22:26;100806.63;;;14.47;18.08
9415;BME280;4746;35.664;139.738;2023-02-21T04:24:56;100818.69;;;14.83;17.79
9415;BME280;4746;35.664;139.738;2023-02-21T04:27:24;100820.38;;;15.04;17.38
9415;BME280;4746;35.664;139.738;2023-02-21T04:29:53;100802.28;;;14.96;17.37
9415;BME280;4746;35.664;139.738;2023-02-21T04:32:20;100818.66;;;14.92;17.28
9415;BME280;4746;35.664;139.738;2023-02-21T04:34:48;100800.59;;;14.86;17.24
9415;BME280;4746;35.664;139.738;2023-02-21T04:37:15;100797.16;;;14.92;16.87
9415;BME280;4746;35.664;139.738;2023-02-21T04:39:43;100807.47;;;15.01;17.18
9415;BME280;4746;35.664;139.738;2023-02-21T04:42:10;100810.06;;;14.75;17.80
9415;BME280;4746;35.664;139.738;2023-02-21T04:44:38;100815.22;;;14.57;17.87
9415;BME280;4746;35.664;139.738;2023-02-21T04:47:06;100877.16;;;14.72;17.74
9415;BME280;4746;35.664;139.738;2023-02-21T04:49:34;100782.06;;;16.17;16.95
9415;BME280;4746;35.664;139.738;2023-02-21T04:52:02;100824.09;;;18.14;15.73
9415;BME280;4746;35.664;139.738;2023-02-21T04:54:29;100812.38;;;19.49;14.75
9415;BME280;4746;35.664;139.738;2023-02-21T04:56:57;100802.63;;;20.38;13.86
9415;BME280;4746;35.664;139.738;2023-02-21T04:59:24;100821.28;;;20.93;13.62
9415;BME280;4746;35.664;139.738;2023-02-21T05:01:53;100822.81;;;21.33;13.10
9415;BME280;4746;35.664;139.738;2023-02-21T05:04:20;100822.88;;;21.92;13.12
9415;BME280;4746;35.664;139.738;2023-02-21T05:06:48;100826.31;;;22.21;12.90
9415;BME280;4746;35.664;139.738;2023-02-21T05:09:15;100833.50;;;22.71;12.43
9415;BME280;4746;35.664;139.738;2023-02-21T05:11:43;100823.94;;;22.96;12.55
9415;BME280;4746;35.664;139.738;2023-02-21T05:14:11;100839.50;;;22.99;12.34
9415;BME280;4746;35.664;139.738;2023-02-21T05:16:40;100840.09;;;23.32;12.18
9415;BME280;4746;35.664;139.738;2023-02-21T05:19:07;100844.31;;;24.08;12.10
9415;BME280;4746;35.664;139.738;2023-02-21T05:21:36;100845.56;;;24.44;12.11
9415;BME280;4746;35.664;139.738;2023-02-21T05:24:07;100807.63;;;24.73;12.15
9415;BME280;4746;35.664;139.738;2023-02-21T05:26:37;100835.84;;;25.29;12.11
9415;BME280;4746;35.664;139.738;2023-02-21T05:29:05;100848.38;;;25.43;11.49
9415;BME280;4746;35.664;139.738;2023-02-21T05:31:32;100824.19;;;25.36;11.56
9415;BME280;4746;35.664;139.738;2023-02-21T05:34:00;100852.91;;;25.39;11.46
9415;BME280;4746;35.664;139.738;2023-02-21T05:36:30;100845.50;;;25.29;11.27
9415;BME280;4746;35.664;139.738;2023-02-21T05:38:58;100840.50;;;25.43;11.54
9415;BME280;4746;35.664;139.738;2023-02-21T05:41:25;100842.47;;;25.58;10.93
9415;BME280;4746;35.664;139.738;2023-02-21T05:43:53;100842.50;;;24.97;11.37
9415;BME280;4746;35.664;139.738;2023-02-21T05:46:31;100843.84;;;24.64;11.43
9415;BME280;4746;35.664;139.738;2023-02-21T05:49:01;100853.81;;;24.77;11.13
9415;BME280;4746;35.664;139.738;2023-02-21T05:51:41;100880.91;;;25.19;11.47
9415;BME280;4746;35.664;139.738;2023-02-21T05:54:17;100857.09;;;24.82;11.34
9415;BME280;4746;35.664;139.738;2023-02-21T05:56:47;100861.34;;;24.63;11.74
9415;BME280;4746;35.664;139.738;2023-02-21T05:59:18;100903.53;;;24.12;11.49
9415;BME280;4746;35.664;139.738;2023-02-21T06:01:49;100859.25;;;23.83;11.65
9415;BME280;4746;35.664;139.738;2023-02-21T06:04:17;100854.78;;;24.08;11.96
9415;BME280;4746;35.664;139.738;2023-02-21T06:06:45;100887.00;;;23.87;11.88
9415;BME280;4746;35.664;139.738;2023-02-21T06:09:13;100877.94;;;23.48;11.45
9415;BME280;4746;35.664;139.738;2023-02-21T06:11:40;100871.19;;;23.66;11.87
9415;BME280;4746;35.664;139.738;2023-02-21T06:14:15;100860.66;;;23.67;11.54
9415;BME280;4746;35.664;139.738;2023-02-21T06:16:44;100854.50;;;23.68;11.91
9415;BME280;4746;35.664;139.738;2023-02-21T06:19:13;100854.69;;;23.39;12.43
9415;BME280;4746;35.664;139.738;2023-02-21T06:21:42;100860.81;;;23.38;11.95
9415;BME280;4746;35.664;139.738;2023-02-21T06:24:13;100879.53;;;23.52;12.08
9415;BME280;4746;35.664;139.738;2023-02-21T06:26:42;100879.59;;;23.98;12.20
9415;BME280;4746;35.664;139.738;2023-02-21T06:29:11;100889.41;;;24.16;12.20
9415;BME280;4746;35.664;139.738;2023-02-21T06:31:39;100883.41;;;24.35;12.24
9415;BME280;4746;35.664;139.738;2023-02-21T06:34:06;100894.78;;;24.80;12.03
9415;BME280;4746;35.664;139.738;2023-02-21T06:36:34;100863.16;;;25.25;11.74
9415;BME280;4746;35.664;139.738;2023-02-21T06:39:01;100863.00;;;25.28;11.55
9415;BME280;4746;35.664;139.738;2023-02-21T06:41:31;100893.66;;;24.85;11.88
9415;BME280;4746;35.664;139.738;2023-02-21T06:43:59;100894.38;;;24.67;11.84
9415;BME280;4746;35.664;139.738;2023-02-21T06:46:29;100846.97;;;24.73;11.39
9415;BME280;4746;35.664;139.738;2023-02-21T06:48:57;100877.75;;;24.68;11.32
9415;BME280;4746;35.664;139.738;2023-02-21T06:51:25;100894.88;;;24.55;11.47
9415;BME280;4746;35.664;139.738;2023-02-21T06:53:56;100889.63;;;24.55;11.58
9415;BME280;4746;35.664;139.738;2023-02-21T06:56:25;100862.19;;;24.43;11.47
9415;BME280;4746;35.664;139.738;2023-02-21T06:58:54;100868.91;;;24.04;11.73
9415;BME280;4746;35.664;139.738;2023-02-21T07:01:22;100880.56;;;23.47;11.88
9415;BME280;4746;35.664;139.738;2023-02-21T07:03:51;100855.38;;;23.20;11.82
9415;BME280;4746;35.664;139.738;2023-02-21T07:06:19;100869.75;;;22.80;12.07
9415;BME280;4746;35.664;139.738;2023-02-21T07:08:48;100847.31;;;22.18;12.12
9415;BME280;4746;35.664;139.738;2023-02-21T07:11:18;100892.56;;;22.47;12.38
9415;BME280;4746;35.664;139.738;2023-02-21T07:13:53;100858.16;;;22.62;12.40
9415;BME280;4746;35.664;139.738;2023-02-21T07:16:22;100855.53;;;22.35;12.63
9415;BME280;4746;35.664;139.738;2023-02-21T07:18:50;100911.53;;;22.25;12.86
9415;BME280;4746;35.664;139.738;2023-02-21T07:21:19;100842.69;;;21.37;12.84
9415;BME280;4746;35.664;139.738;2023-02-21T07:23:48;100890.09;;;21.19;12.88
9415;BME280;4746;35.664;139.738;2023-02-21T07:26:16;100889.47;;;21.43;13.15
9415;BME280;4746;35.664;139.738;2023-02-21T07:28:43;100890.81;;;21.24;13.20
9415;BME280;4746;35.664;139.738;2023-02-21T07:31:16;100915.41;;;20.79;13.34
9415;BME280;4746;35.664;139.738;2023-02-21T07:33:45;100909.84;;;20.55;13.48
9415;BME280;4746;35.664;139.738;2023-02-21T07:36:13;100913.84;;;20.31;14.12
9415;BME280;4746;35.664;139.738;2023-02-21T07:38:40;100934.09;;;20.18;14.17
9415;BME280;4746;35.664;139.738;2023-02-21T07:41:08;100928.63;;;20.29;14.08
9415;BME280;4746;35.664;139.738;2023-02-21T07:43:35;100953.25;;;20.14;14.10
9415;BME280;4746;35.664;139.738;2023-02-21T07:46:11;100900.97;;;19.82;14.39
9415;BME280;4746;35.664;139.738;2023-02-21T07:48:40;100933.56;;;19.54;14.52
9415;BME280;4746;35.664;139.738;2023-02-21T07:51:10;100938.97;;;19.42;14.78
9415;BME280;4746;35.664;139.738;2023-02-21T07:53:37;100954.72;;;19.35;14.88
9415;BME280;4746;35.664;139.738;2023-02-21T07:56:06;100967.25;;;19.10;14.87
9415;BME280;4746;35.664;139.738;2023-02-21T07:58:34;100965.63;;;19.00;15.14
9415;BME280;4746;35.664;139.738;2023-02-21T08:01:07;100950.53;;;18.68;15.32
9415;BME280;4746;35.664;139.738;2023-02-21T08:03:35;100956.13;;;18.38;15.18
9415;BME280;4746;35.664;139.738;2023-02-21T08:06:04;100953.81;;;18.12;15.34
9415;BME280;4746;35.664;139.738;2023-02-21T08:08:31;100962.25;;;17.51;15.40
9415;BME280;4746;35.664;139.738;2023-02-21T08:10:59;100935.19;;;16.73;16.01
9415;BME280;4746;35.664;139.738;2023-02-21T08:13:26;100981.16;;;16.13;16.48
9415;BME280;4746;35.664;139.738;2023-02-21T08:15:54;101004.53;;;15.40;16.90
9415;BME280;4746;35.664;139.738;2023-02-21T08:18:23;101001.72;;;14.46;17.17
9415;BME280;4746;35.664;139.738;2023-02-21T08:20:53;100995.16;;;13.56;18.16
9415;BME280;4746;35.664;139.738;2023-02-21T08:23:23;100957.50;;;12.74;18.76
9415;BME280;4746;35.664;139.738;2023-02-21T08:25:50;100971.41;;;12.15;19.50
9415;BME280;4746;35.664;139.738;2023-02-21T08:28:18;101020.44;;;11.73;19.64
9415;BME280;4746;35.664;139.738;2023-02-21T08:30:48;101014.69;;;11.37;20.63
9415;BME280;4746;35.664;139.738;2023-02-21T08:33:16;101022.69;;;11.06;20.61
9415;BME280;4746;35.664;139.738;2023-02-21T08:35:43;101041.91;;;10.83;21.05
9415;BME280;4746;35.664;139.738;2023-02-21T08:38:11;101018.41;;;10.61;21.29
9415;BME280;4746;35.664;139.738;2023-02-21T08:40:39;101041.88;;;10.40;21.04
9415;BME280;4746;35.664;139.738;2023-02-21T08:43:06;101040.69;;;10.24;21.98
9415;BME280;4746;35.664;139.738;2023-02-21T08:45:35;101031.03;;;10.11;22.80
9415;BME280;4746;35.664;139.738;2023-02-21T08:48:03;101039.41;;;10.04;22.53
9415;BME280;4746;35.664;139.738;2023-02-21T08:50:30;101023.97;;;10.01;22.89
9415;BME280;4746;35.664;139.738;2023-02-21T08:52:59;101030.63;;;9.96;23.24
9415;BME280;4746;35.664;139.738;2023-02-21T08:55:26;101047.66;;;9.94;23.37
9415;BME280;4746;35.664;139.738;2023-02-21T08:57:55;101024.47;;;9.88;23.11
9415;BME280;4746;35.664;139.738;2023-02-21T09:00:24;101025.13;;;9.79;23.34
9415;BME280;4746;35.664;139.738;2023-02-21T09:02:56;101073.56;;;9.70;23.35
9415;BME280;4746;35.664;139.738;2023-02-21T09:05:28;101052.09;;;9.64;23.41
9415;BME280;4746;35.664;139.738;2023-02-21T09:07:59;101074.03;;;9.56;23.54
9415;BME280;4746;35.664;139.738;2023-02-21T09:10:32;101089.31;;;9.53;22.99
9415;BME280;4746;35.664;139.738;2023-02-21T09:13:01;101106.97;;;9.43;23.65
9415;BME280;4746;35.664;139.738;2023-02-21T09:15:29;101118.69;;;9.36;23.37
9415;BME280;4746;35.664;139.738;2023-02-21T09:17:57;101127.13;;;9.32;23.41
9415;BME280;4746;35.664;139.738;2023-02-21T09:20:26;101160.25;;;9.28;23.59
9415;BME280;4746;35.664;139.738;2023-02-21T09:22:54;101166.78;;;9.18;23.80
9415;BME280;4746;35.664;139.738;2023-02-21T09:25:24;101138.66;;;9.18;24.24
9415;BME280;4746;35.664;139.738;2023-02-21T09:27:53;101187.22;;;9.17;24.03
9415;BME280;4746;35.664;139.738;2023-02-21T09:30:24;101169.09;;;9.09;24.15
9415;BME280;4746;35.664;139.738;2023-02-21T09:32:52;101163.84;;;9.05;24.15
9415;BME280;4746;35.664;139.738;2023-02-21T09:35:20;101184.09;;;8.98;24.39
9415;BME280;4746;35.664;139.738;2023-02-21T09:37:48;101162.59;;;8.91;25.03
9415;BME280;4746;35.664;139.738;2023-02-21T09:40:36;101195.78;;;8.90;25.10
9415;BME280;4746;35.664;139.738;2023-02-21T09:43:14;101192.19;;;8.83;24.95
9415;BME280;4746;35.664;139.738;2023-02-21T09:45:44;101208.97;;;8.75;24.80
9415;BME280;4746;35.664;139.738;2023-02-21T09:48:17;101205.44;;;8.72;25.19
9415;BME280;4746;35.664;139.738;2023-02-21T09:50:53;101206.25;;;8.71;25.36
9415;BME280;4746;35.664;139.738;2023-02-21T09:53:30;101218.97;;;8.68;25.26
9415;BME280;4746;35.664;139.738;2023-02-21T09:56:17;101209.38;;;8.61;25.62
9415;BME280;4746;35.664;139.738;2023-02-21T09:58:49;101188.72;;;8.53;25.99
9415;BME280;4746;35.664;139.738;2023-02-21T10:01:57;101225.41;;;8.55;25.89
9415;BME280;4746;35.664;139.738;2023-02-21T10:10:31;101263.03;;;8.36;25.84
9415;BME280;4746;35.664;139.738;2023-02-21T10:16:01;101254.78;;;8.18;26.20
9415;BME280;4746;35.664;139.738;2023-02-21T10:21:38;101274.31;;;8.16;26.63
9415;BME280;4746;35.664;139.738;2023-02-21T10:24:21;101271.59;;;8.13;26.79
9415;BME280;4746;35.664;139.738;2023-02-21T10:27:22;101274.91;;;8.11;26.64
9415;BME280;4746;35.664;139.738;2023-02-21T10:30:03;101263.75;;;8.07;26.73
9415;BME280;4746;35.664;139.738;2023-02-21T10:32:32;101261.91;;;8.03;26.64
9415;BME280;4746;35.664;139.738;2023-02-21T10:34:59;101263.66;;;8.04;27.01
9415;BME280;4746;35.664;139.738;2023-02-21T10:37:50;101267.13;;;8.06;26.87
9415;BME280;4746;35.664;139.738;2023-02-21T10:43:16;101292.53;;;8.03;26.25
9415;BME280;4746;35.664;139.738;2023-02-21T10:48:30;101305.13;;;7.99;26.28
9415;BME280;4746;35.664;139.738;2023-02-21T10:51:16;101318.88;;;8.02;26.67
9415;BME280;4746;35.664;139.738;2023-02-21T10:53:46;101320.34;;;7.96;26.61
9415;BME280;4746;35.664;139.738;2023-02-21T10:59:02;101339.00;;;7.95;26.25
9415;BME280;4746;35.664;139.738;2023-02-21T11:01:41;101333.75;;;7.90;26.25
9415;BME280;4746;35.664;139.738;2023-02-21T11:04:31;101326.03;;;7.89;26.02
9415;BME280;4746;35.664;139.738;2023-02-21T11:07:09;101332.41;;;8.23;26.54
9415;BME280;4746;35.664;139.738;2023-02-21T11:09:46;101314.03;;;8.33;26.94
9415;BME280;4746;35.664;139.738;2023-02-21T11:12:27;101338.75;;;8.34;26.31
9415;BME280;4746;35.664;139.738;2023-02-21T11:17:30;101345.38;;;8.29;26.42
9415;BME280;4746;35.664;139.738;2023-02-21T11:20:20;101336.06;;;8.31;26.29
9415;BME280;4746;35.664;139.738;2023-02-21T11:22:50;101345.25;;;8.26;25.84
9415;BME280;4746;35.664;139.738;2023-02-21T11:25:28;101336.75;;;8.26;25.71
9415;BME280;4746;35.664;139.738;2023-02-21T11:30:38;101364.97;;;8.30;25.63
9415;BME280;4746;35.664;139.738;2023-02-21T11:33:08;101350.41;;;8.27;25.66
9415;BME280;4746;35.664;139.738;2023-02-21T11:36:15;101380.28;;;8.30;24.95
9415;BME280;4746;35.664;139.738;2023-02-21T11:41:49;101356.28;;;8.25;25.06
9415;BME280;4746;35.664;139.738;2023-02-21T11:44:34;101364.53;;;8.18;25.45
9415;BME280;4746;35.664;139.738;2023-02-21T11:47:25;101384.06;;;8.16;24.99
9415;BME280;4746;35.664;139.738;2023-02-21T11:50:24;101382.19;;;8.12;25.43
9415;BME280;4746;35.664;139.738;2023-02-21T11:53:23;101382.88;;;8.08;25.72
9415;BME280;4746;35.664;139.738;2023-02-21T12:02:44;101389.84;;;8.12;25.68
9415;BME280;4746;35.664;139.738;2023-02-21T12:08:28;101415.94;;;8.05;25.99
9415;BME280;4746;35.664;139.738;2023-02-21T12:17:10;101432.03;;;8.03;26.06
9415;BME280;4746;35.664;139.738;2023-02-21T12:32:54;101422.06;;;7.87;25.78
9415;BME280;4746;35.664;139.738;2023-02-21T12:35:48;101448.09;;;7.78;25.33
9415;BME280;4746;35.664;139.738;2023-02-21T12:44:53;101462.50;;;7.76;25.54
9415;BME280;4746;35.664;139.738;2023-02-21T12:47:35;101453.94;;;7.76;25.16
9415;BME280;4746;35.664;139.738;2023-02-21T12:50:20;101423.47;;;7.79;25.38
9415;BME280;4746;35.664;139.738;2023-02-21T12:55:40;101408.94;;;7.76;25.31
9415;BME280;4746;35.664;139.738;2023-02-21T12:58:21;101400.97;;;7.69;25.29
9415;BME280;4746;35.664;139.738;2023-02-21T13:04:59;101430.38;;;7.59;25.13
9415;BME280;4746;35.664;139.738;2023-02-21T13:07:54;101404.66;;;7.54;25.27
9415;BME280;4746;35.664;139.738;2023-02-21T13:13:40;101449.47;;;7.49;25.76
9415;BME280;4746;35.664;139.738;2023-02-21T13:16:12;101460.75;;;7.54;25.46
9415;BME280;4746;35.664;139.738;2023-02-21T13:18:53;101450.53;;;7.54;25.21
9415;BME280;4746;35.664;139.738;2023-02-21T13:22:01;101459.00;;;7.53;25.25
9415;BME280;4746;35.664;139.738;2023-02-21T13:25:11;101433.38;;;7.50;24.53
9415;BME280;4746;35.664;139.738;2023-02-21T13:27:53;101436.63;;;7.46;25.10
9415;BME280;4746;35.664;139.738;2023-02-21T13:30:38;101439.03;;;7.43;25.33
9415;BME280;4746;35.664;139.738;2023-02-21T13:33:25;101452.53;;;7.40;24.80
9415;BME280;4746;35.664;139.738;2023-02-21T13:35:56;101445.50;;;7.33;25.41
9415;BME280;4746;35.664;139.738;2023-02-21T13:38:30;101461.50;;;7.31;25.31
9415;BME280;4746;35.664;139.738;2023-02-21T13:41:11;101477.63;;;7.30;25.37
9415;BME280;4746;35.664;139.738;2023-02-21T13:44:07;101498.88;;;7.30;25.24
9415;BME280;4746;35.664;139.738;2023-02-21T13:49:53;101508.25;;;7.31;24.88
9415;BME280;4746;35.664;139.738;2023-02-21T14:08:31;101480.28;;;7.33;23.36
9415;BME280;4746;35.664;139.738;2023-02-21T14:16:25;101517.72;;;7.34;23.67
9415;BME280;4746;35.664;139.738;2023-02-21T14:19:22;101494.06;;;7.38;23.50
9415;BME280;4746;35.664;139.738;2023-02-21T14:22:23;101499.19;;;7.38;23.45
9415;BME280;4746;35.664;139.738;2023-02-21T14:25:05;101467.53;;;7.33;23.31
9415;BME280;4746;35.664;139.738;2023-02-21T14:27:36;101488.72;;;7.32;23.23
9415;BME280;4746;35.664;139.738;2023-02-21T14:30:32;101505.03;;;7.35;23.48
9415;BME280;4746;35.664;139.738;2023-02-21T14:33:26;101509.25;;;7.35;23.33
9415;BME280;4746;35.664;139.738;2023-02-21T14:36:16;101496.47;;;7.33;23.63
9415;BME280;4746;35.664;139.738;2023-02-21T14:38:44;101492.03;;;7.29;23.66
9415;BME280;4746;35.664;139.738;2023-02-21T14:42:17;101457.16;;;7.28;23.73
9415;BME280;4746;35.664;139.738;2023-02-21T14:53:30;101510.81;;;7.11;23.70
9415;BME280;4746;35.664;139.738;2023-02-21T15:02:38;101534.34;;;7.05;24.35
9415;BME280;4746;35.664;139.738;2023-02-21T15:05:29;101543.75;;;7.06;24.06
9415;BME280;4746;35.664;139.738;2023-02-21T15:08:20;101546.28;;;7.06;24.27
9415;BME280;4746;35.664;139.738;2023-02-21T15:11:00;101550.53;;;7.06;24.65
9415;BME280;4746;35.664;139.738;2023-02-21T15:13:34;101537.84;;;7.07;24.76
9415;BME280;4746;35.664;139.738;2023-02-21T15:16:12;101526.91;;;7.10;24.89
9415;BME280;4746;35.664;139.738;2023-02-21T15:18:57;101514.97;;;7.09;24.72
9415;BME280;4746;35.664;139.738;2023-02-21T15:21:26;101519.81;;;7.03;24.24
9415;BME280;4746;35.664;139.738;2023-02-21T15:24:14;101516.47;;;7.04;24.09
9415;BME280;4746;35.664;139.738;2023-02-21T15:26:42;101509.41;;;6.98;23.81
9415;BME280;4746;35.664;139.738;2023-02-21T15:29:13;101526.41;;;6.98;24.44
9415;BME280;4746;35.664;139.738;2023-02-21T15:31:54;101539.19;;;6.99;24.25
9415;BME280;4746;35.664;139.738;2023-02-21T15:34:38;101541.69;;;6.98;24.58
9415;BME280;4746;35.664;139.738;2023-02-21T15:37:23;101549.25;;;6.96;24.27
9415;BME280;4746;35.664;139.738;2023-02-21T15:40:16;101579.69;;;6.93;24.44
9415;BME280;4746;35.664;139.738;2023-02-21T15:42:46;101571.03;;;6.90;24.21
9415;BME280;4746;35.664;139.738;2023-02-21T15:47:49;101564.94;;;6.87;24.53
9415;BME280;4746;35.664;139.738;2023-02-21T15:50:38;101554.84;;;6.88;25.03
9415;BME280;4746;35.664;139.738;2023-02-21T15:53:18;101547.84;;;6.84;24.63
9415;BME280;4746;35.664;139.738;2023-02-21T15:55:48;101551.97;;;6.81;24.62
9415;BME280;4746;35.664;139.738;2023-02-21T16:01:07;101557.06;;;6.81;24.66
9415;BME280;4746;35.664;139.738;2023-02-21T16:03:42;101562.16;;;6.81;24.95
9415;BME280;4746;35.664;139.738;2023-02-21T16:06:28;101545.19;;;6.81;24.75
9415;BME280;4746;35.664;139.738;2023-02-21T16:15:01;101541.84;;;6.82;25.23
9415;BME280;4746;35.664;139.738;2023-02-21T16:17:40;101522.28;;;6.81;25.03
9415;BME280;4746;35.664;139.738;2023-02-21T16:20:18;101541.59;;;6.76;25.57
9415;BME280;4746;35.664;139.738;2023-02-21T16:22:49;101539.03;;;6.76;24.90
9415;BME280;4746;35.664;139.738;2023-02-21T16:25:22;101532.06;;;6.72;25.19